Time;durP1;ratioP1;P1;durP2;ratioP2;P2;SDS_P1;SDS_P2;PMS_P1;PMS_P2;Temp;Humidity;BMP_temperature;BMP_pressure;BME280_temperature;BME280_humidity;BME280_pressure;Samples;Min_cycle;Max_cycle;Signal;HPM_P1;HPM_P2
2022/01/08 00:00:31;;;;;;;4.93;2.73;;;;;;;;;;6246607;23;20216;-85
2022/01/08 00:03:00;;;;;;;1.43;1.33;;;;;;;;;;6246335;23;20201;-85
2022/01/08 00:05:29;;;;;;;0.70;0.70;;;;;;;;;;6247007;23;20181;-85
2022/01/08 00:07:57;;;;;;;1.87;1.87;;;;;;;;;;6246373;23;20197;-85
2022/01/08 00:10:25;;;;;;;0.70;0.70;;;;;;;;;;6246967;23;20223;-85
2022/01/08 00:12:54;;;;;;;0.80;0.80;;;;;;;;;;6246812;23;20170;-84
2022/01/08 00:15:23;;;;;;;6.13;1.27;;;;;;;;;;6246940;23;20173;-85
2022/01/08 00:17:52;;;;;;;2.17;1.80;;;;;;;;;;6246990;23;20174;-85
2022/01/08 00:20:21;;;;;;;2.80;1.20;;;;;;;;;;6246709;23;20173;-85
2022/01/08 00:22:51;;;;;;;1.17;1.13;;;;;;;;;;6246041;23;20459;-85
2022/01/08 00:25:19;;;;;;;1.10;1.10;;;;;;;;;;6246867;23;20174;-84
2022/01/08 00:27:48;;;;;;;5.73;1.03;;;;;;;;;;6246262;23;20177;-85
2022/01/08 00:30:16;;;;;;;2.67;1.93;;;;;;;;;;6246225;23;20175;-85
2022/01/08 00:32:44;;;;;;;1.00;0.90;;;;;;;;;;6246860;23;20197;-85
2022/01/08 00:35:16;;;;;;;5.37;1.10;;;;;;;;;;6246617;23;20204;-85
2022/01/08 00:37:45;;;;;;;2.00;1.50;;;;;;;;;;6246184;23;20200;-85
2022/01/08 00:40:14;;;;;;;0.90;0.90;;;;;;;;;;6246364;23;20174;-85
2022/01/08 00:42:42;;;;;;;1.43;1.33;;;;;;;;;;6246427;23;20197;-85
2022/01/08 00:45:11;;;;;;;0.90;0.90;;;;;;;;;;6246819;23;20174;-86
2022/01/08 00:47:39;;;;;;;4.03;2.00;;;;;;;;;;6248334;23;20198;-85
2022/01/08 00:50:08;;;;;;;2.03;1.53;;;;;;;;;;6248285;23;20180;-86
2022/01/08 00:52:38;;;;;;;2.13;1.40;;;;;;;;;;6248468;23;20177;-86
2022/01/08 00:55:07;;;;;;;5.23;1.80;;;;;;;;;;6248156;23;20178;-86
2022/01/08 00:57:35;;;;;;;8.57;1.73;;;;;;;;;;6248815;23;20185;-85
2022/01/08 01:00:05;;;;;;;3.10;1.50;;;;;;;;;;6248051;23;20174;-85
2022/01/08 01:02:33;;;;;;;12.60;2.67;;;;;;;;;;6248608;23;20247;-85
2022/01/08 01:05:02;;;;;;;1.27;1.17;;;;;;;;;;6247840;23;20176;-85
2022/01/08 01:07:30;;;;;;;2.20;1.50;;;;;;;;;;6248751;23;20197;-86
2022/01/08 01:10:00;;;;;;;3.50;2.30;;;;;;;;;;6248502;23;20189;-86
2022/01/08 01:12:28;;;;;;;7.97;2.50;;;;;;;;;;6248723;23;20187;-86
2022/01/08 01:15:13;;;;;;;2.53;1.17;;;;;;;;;;6248587;23;20225;-86
2022/01/08 01:17:42;;;;;;;6.63;1.93;;;;;;;;;;6248841;23;20196;-86
2022/01/08 01:20:11;;;;;;;1.20;1.20;;;;;;;;;;6248081;23;20193;-86
2022/01/08 01:22:47;;;;;;;2.03;1.17;;;;;;;;;;6248132;23;20263;-85
2022/01/08 01:25:21;;;;;;;1.00;1.00;;;;;;;;;;6248191;23;20166;-85
2022/01/08 01:28:07;;;;;;;1.00;1.00;;;;;;;;;;6248139;23;20185;-86
2022/01/08 01:42:17;;;;;;;1.03;1.00;;;;;;;;;;5133572;28;20176;-85
2022/01/08 01:47:33;;;;;;;1.23;1.00;;;;;;;;;;5133116;28;20187;-85
2022/01/08 01:50:04;;;;;;;3.93;1.60;;;;;;;;;;5133132;28;20192;-85
2022/01/08 01:52:33;;;;;;;3.50;1.17;;;;;;;;;;5133226;28;20213;-85
2022/01/08 01:55:01;;;;;;;2.40;2.20;;;;;;;;;;5132910;28;20230;-85
2022/01/08 01:57:30;;;;;;;1.83;1.73;;;;;;;;;;5133153;28;20256;-85
2022/01/08 01:59:59;;;;;;;2.40;1.27;;;;;;;;;;5133032;28;20192;-85
2022/01/08 02:02:28;;;;;;;0.80;0.80;;;;;;;;;;5131355;28;20196;-86
2022/01/08 02:04:56;;;;;;;3.00;1.13;;;;;;;;;;5112671;28;20197;-86
2022/01/08 02:07:28;;;;;;;1.57;1.47;;;;;;;;;;5112489;28;20212;-85
2022/01/08 02:09:56;;;;;;;7.13;1.47;;;;;;;;;;5112667;28;20224;-86
2022/01/08 02:12:25;;;;;;;3.73;1.60;;;;;;;;;;5111900;28;20216;-85
2022/01/08 02:14:53;;;;;;;1.63;1.53;;;;;;;;;;5112366;28;20313;-85
2022/01/08 02:17:21;;;;;;;4.80;1.63;;;;;;;;;;5112608;28;20264;-86
2022/01/08 02:19:54;;;;;;;2.57;1.70;;;;;;;;;;5112617;28;20196;-85
2022/01/08 02:22:23;;;;;;;8.73;2.17;;;;;;;;;;5113000;28;20256;-85
2022/01/08 02:24:51;;;;;;;2.53;0.90;;;;;;;;;;5112251;28;20258;-86
2022/01/08 02:27:21;;;;;;;0.83;0.83;;;;;;;;;;5111841;28;20197;-86
2022/01/08 02:29:50;;;;;;;1.10;1.10;;;;;;;;;;5112434;28;20224;-86
2022/01/08 02:32:20;;;;;;;1.60;1.50;;;;;;;;;;5127361;27;20227;-86
2022/01/08 02:34:49;;;;;;;2.40;1.47;;;;;;;;;;5132834;28;20287;-85
2022/01/08 02:37:25;;;;;;;4.47;1.10;;;;;;;;;;5132583;28;20206;-86
2022/01/08 02:39:53;;;;;;;1.43;1.40;;;;;;;;;;5132668;28;20234;-86
2022/01/08 02:42:24;;;;;;;1.07;1.03;;;;;;;;;;5132838;28;20211;-85
2022/01/08 02:44:52;;;;;;;3.63;0.93;;;;;;;;;;5119026;28;20246;-86
2022/01/08 02:47:21;;;;;;;1.00;1.00;;;;;;;;;;5119339;28;20229;-86
2022/01/08 02:49:52;;;;;;;5.87;1.63;;;;;;;;;;5119269;28;20258;-86
2022/01/08 02:52:23;;;;;;;1.47;1.37;;;;;;;;;;5118793;28;20223;-86
2022/01/08 02:54:51;;;;;;;1.50;1.40;;;;;;;;;;5118347;28;20208;-86
2022/01/08 02:57:20;;;;;;;0.73;0.73;;;;;;;;;;5117805;28;20200;-85
2022/01/08 02:59:48;;;;;;;2.57;0.90;;;;;;;;;;5118437;28;20336;-86
2022/01/08 03:02:17;;;;;;;1.67;1.57;;;;;;;;;;5118534;28;20203;-85
2022/01/08 03:04:46;;;;;;;1.77;1.43;;;;;;;;;;5118126;28;20227;-86
2022/01/08 03:07:14;;;;;;;8.07;2.20;;;;;;;;;;5118372;28;20273;-85
2022/01/08 03:09:46;;;;;;;0.90;0.90;;;;;;;;;;5118299;28;20235;-86
2022/01/08 03:12:14;;;;;;;1.93;1.30;;;;;;;;;;5118631;28;20220;-85
2022/01/08 03:14:43;;;;;;;4.37;1.97;;;;;;;;;;5118597;28;20284;-86
2022/01/08 03:17:12;;;;;;;1.27;1.17;;;;;;;;;;5118852;28;20208;-86
2022/01/08 03:19:40;;;;;;;2.20;1.73;;;;;;;;;;5118341;28;20211;-86
2022/01/08 03:22:08;;;;;;;2.17;1.17;;;;;;;;;;5118506;28;20208;-85
2022/01/08 03:24:37;;;;;;;12.53;2.60;;;;;;;;;;5118526;28;20231;-86
2022/01/08 03:27:07;;;;;;;2.83;1.50;;;;;;;;;;5118222;28;20212;-85
2022/01/08 03:29:35;;;;;;;7.20;2.47;;;;;;;;;;5118098;28;20234;-86
2022/01/08 03:32:04;;;;;;;2.83;2.10;;;;;;;;;;5110514;28;20224;-85
2022/01/08 03:34:32;;;;;;;2.27;1.53;;;;;;;;;;5097915;28;20209;-86
2022/01/08 03:37:01;;;;;;;6.13;2.37;;;;;;;;;;5098007;28;20235;-86
2022/01/08 03:39:29;;;;;;;6.80;3.00;;;;;;;;;;5098188;28;20247;-86
2022/01/08 03:41:57;;;;;;;3.33;1.50;;;;;;;;;;5097979;28;20217;-86
2022/01/08 03:44:27;;;;;;;7.43;2.93;;;;;;;;;;5098409;28;20225;-86
2022/01/08 03:47:01;;;;;;;1.57;1.50;;;;;;;;;;5097956;28;20258;-86
2022/01/08 03:49:29;;;;;;;0.90;0.90;;;;;;;;;;5098155;28;20213;-86
2022/01/08 03:51:58;;;;;;;1.97;1.80;;;;;;;;;;5098074;28;20228;-86
2022/01/08 03:54:26;;;;;;;2.53;2.33;;;;;;;;;;5097345;28;20228;-86
2022/01/08 03:56:54;;;;;;;2.13;1.20;;;;;;;;;;5097277;28;20252;-86
2022/01/08 03:59:23;;;;;;;2.63;1.87;;;;;;;;;;5097644;28;20237;-86
2022/01/08 04:01:53;;;;;;;0.80;0.80;;;;;;;;;;5098056;28;20232;-86
2022/01/08 04:04:21;;;;;;;0.70;0.70;;;;;;;;;;5097689;28;20248;-86
2022/01/08 04:06:49;;;;;;;0.80;0.80;;;;;;;;;;5098416;28;20259;-86
2022/01/08 04:09:18;;;;;;;0.80;0.80;;;;;;;;;;5098136;28;20201;-86
2022/01/08 04:11:47;;;;;;;0.80;0.80;;;;;;;;;;5098212;28;20224;-86
2022/01/08 04:14:17;;;;;;;0.70;0.70;;;;;;;;;;5097887;28;20224;-86
2022/01/08 04:16:49;;;;;;;0.70;0.70;;;;;;;;;;5098175;28;20209;-86
2022/01/08 04:19:19;;;;;;;0.80;0.80;;;;;;;;;;5098255;28;20261;-86
2022/01/08 04:22:02;;;;;;;0.70;0.70;;;;;;;;;;5098505;28;20201;-86
2022/01/08 04:24:30;;;;;;;0.90;0.90;;;;;;;;;;5098487;28;20249;-85
2022/01/08 04:26:59;;;;;;;0.80;0.80;;;;;;;;;;5098381;28;20227;-86
2022/01/08 04:29:27;;;;;;;1.63;1.40;;;;;;;;;;5098737;28;20226;-86
2022/01/08 04:31:55;;;;;;;3.50;1.27;;;;;;;;;;5098132;28;20264;-86
2022/01/08 04:34:26;;;;;;;1.83;1.50;;;;;;;;;;5097735;28;20236;-86
2022/01/08 04:36:54;;;;;;;5.10;1.10;;;;;;;;;;5098263;28;20204;-86
2022/01/08 04:39:23;;;;;;;0.77;0.77;;;;;;;;;;5097380;28;20209;-86
2022/01/08 04:41:51;;;;;;;1.57;1.47;;;;;;;;;;5097787;28;20205;-86
2022/01/08 04:44:19;;;;;;;8.10;2.37;;;;;;;;;;5098104;28;20253;-86
2022/01/08 04:46:48;;;;;;;2.53;1.47;;;;;;;;;;5097533;28;20200;-87
2022/01/08 04:49:16;;;;;;;2.40;1.63;;;;;;;;;;5097404;28;20226;-86
2022/01/08 04:51:46;;;;;;;1.10;1.10;;;;;;;;;;5097960;28;20227;-86
2022/01/08 04:54:14;;;;;;;2.67;1.40;;;;;;;;;;5097881;28;20341;-86
2022/01/08 04:56:43;;;;;;;15.53;1.77;;;;;;;;;;5098016;28;20204;-86
2022/01/08 04:59:11;;;;;;;1.67;1.40;;;;;;;;;;5097636;28;20201;-86
2022/01/08 05:01:40;;;;;;;1.60;1.50;;;;;;;;;;5097620;28;20213;-86
2022/01/08 05:04:08;;;;;;;0.80;0.80;;;;;;;;;;5097401;28;20221;-87
2022/01/08 05:06:37;;;;;;;4.33;1.80;;;;;;;;;;5097671;28;20213;-86
2022/01/08 05:09:06;;;;;;;4.17;1.67;;;;;;;;;;5097581;28;20225;-87
2022/01/08 05:11:35;;;;;;;3.00;1.57;;;;;;;;;;5097864;28;20228;-86
2022/01/08 05:14:04;;;;;;;1.40;1.30;;;;;;;;;;5097870;28;20225;-87
2022/01/08 05:16:32;;;;;;;2.30;1.33;;;;;;;;;;5097925;28;20200;-86
2022/01/08 05:19:01;;;;;;;0.80;0.80;;;;;;;;;;5097074;28;20204;-86
2022/01/08 05:21:32;;;;;;;0.90;0.90;;;;;;;;;;5097400;28;20212;-87
2022/01/08 05:24:01;;;;;;;4.63;1.87;;;;;;;;;;5097306;28;20197;-86
2022/01/08 05:26:30;;;;;;;9.97;3.13;;;;;;;;;;5096551;28;20209;-86
2022/01/08 05:28:59;;;;;;;2.07;1.70;;;;;;;;;;5095972;28;20197;-86
2022/01/08 05:31:27;;;;;;;2.33;1.47;;;;;;;;;;5098583;28;20335;-86
2022/01/08 05:33:56;;;;;;;3.40;1.70;;;;;;;;;;5116815;28;20224;-86
2022/01/08 05:36:24;;;;;;;5.07;2.63;;;;;;;;;;5117174;28;20208;-86
2022/01/08 05:38:52;;;;;;;2.17;1.90;;;;;;;;;;5116966;28;20230;-86
2022/01/08 05:41:21;;;;;;;12.63;4.10;;;;;;;;;;5116531;28;20242;-86
2022/01/08 05:43:50;;;;;;;5.47;1.77;;;;;;;;;;5117068;28;20245;-86
2022/01/08 05:46:19;;;;;;;6.77;2.57;;;;;;;;;;5117115;28;20204;-86
2022/01/08 05:48:47;;;;;;;7.20;3.07;;;;;;;;;;5117110;28;20208;-86
2022/01/08 05:51:16;;;;;;;4.53;2.30;;;;;;;;;;5117373;28;20243;-86
2022/01/08 05:53:44;;;;;;;5.23;1.27;;;;;;;;;;5117056;28;20224;-86
2022/01/08 05:56:12;;;;;;;1.73;1.63;;;;;;;;;;5117001;28;20200;-86
2022/01/08 05:58:41;;;;;;;2.63;1.80;;;;;;;;;;5117478;28;20216;-86
2022/01/08 06:01:10;;;;;;;4.10;1.80;;;;;;;;;;5117930;28;20211;-86
2022/01/08 06:03:39;;;;;;;1.40;1.40;;;;;;;;;;5117101;28;20252;-86
2022/01/08 06:06:07;;;;;;;1.93;1.83;;;;;;;;;;5117196;28;20200;-86
2022/01/08 06:08:36;;;;;;;5.37;2.93;;;;;;;;;;5117550;28;20208;-86
2022/01/08 06:11:04;;;;;;;5.03;1.70;;;;;;;;;;5117416;28;20212;-86
2022/01/08 06:13:32;;;;;;;1.50;1.40;;;;;;;;;;5116642;28;20223;-87
2022/01/08 06:16:01;;;;;;;2.10;1.80;;;;;;;;;;5116557;28;20243;-86
2022/01/08 06:18:31;;;;;;;2.77;2.00;;;;;;;;;;5117121;28;20205;-86
2022/01/08 06:20:59;;;;;;;1.50;1.40;;;;;;;;;;5120929;28;20204;-86
2022/01/08 06:23:28;;;;;;;1.10;1.10;;;;;;;;;;5120829;28;20216;-86
2022/01/08 06:25:56;;;;;;;1.60;1.23;;;;;;;;;;5120341;28;20236;-86
2022/01/08 06:28:25;;;;;;;3.70;1.67;;;;;;;;;;5120848;28;20208;-86
2022/01/08 06:30:54;;;;;;;3.27;1.83;;;;;;;;;;5120897;28;20212;-86
2022/01/08 06:33:22;;;;;;;3.40;2.20;;;;;;;;;;5120275;28;20236;-86
2022/01/08 06:35:52;;;;;;;3.97;1.77;;;;;;;;;;5120312;28;20307;-86
2022/01/08 06:38:20;;;;;;;1.63;1.43;;;;;;;;;;5120648;28;20220;-86
2022/01/08 06:40:49;;;;;;;11.23;1.10;;;;;;;;;;5119815;28;20261;-86
2022/01/08 06:43:17;;;;;;;1.00;1.00;;;;;;;;;;5120120;28;20295;-86
2022/01/08 06:45:45;;;;;;;4.47;1.47;;;;;;;;;;5120068;28;20264;-86
2022/01/08 06:48:14;;;;;;;2.23;1.40;;;;;;;;;;5120274;28;20236;-86
2022/01/08 06:50:42;;;;;;;1.77;1.03;;;;;;;;;;5120133;28;20211;-86
2022/01/08 06:53:12;;;;;;;1.00;1.00;;;;;;;;;;5120068;28;20192;-86
2022/01/08 06:55:40;;;;;;;1.60;1.50;;;;;;;;;;5119344;28;20260;-86
2022/01/08 06:58:09;;;;;;;2.00;1.90;;;;;;;;;;5120704;28;20215;-86
2022/01/08 07:00:37;;;;;;;4.67;4.20;;;;;;;;;;5120240;28;20204;-86
2022/01/08 07:03:09;;;;;;;22.17;3.97;;;;;;;;;;5120648;28;20228;-86
2022/01/08 07:05:38;;;;;;;2.40;1.57;;;;;;;;;;5120288;28;20204;-86
2022/01/08 07:08:07;;;;;;;1.17;1.17;;;;;;;;;;5120014;28;20201;-87
2022/01/08 07:10:37;;;;;;;2.00;1.63;;;;;;;;;;5119904;28;20208;-86
2022/01/08 07:13:05;;;;;;;0.90;0.90;;;;;;;;;;5119652;28;20205;-87
2022/01/08 07:15:34;;;;;;;6.60;2.33;;;;;;;;;;5119816;28;20224;-86
2022/01/08 07:18:02;;;;;;;2.50;2.30;;;;;;;;;;5119816;28;20231;-86
2022/01/08 07:20:30;;;;;;;0.80;0.80;;;;;;;;;;5120052;28;20220;-86
2022/01/08 07:22:59;;;;;;;1.00;1.00;;;;;;;;;;5119516;28;20196;-86
2022/01/08 07:25:27;;;;;;;1.33;1.33;;;;;;;;;;5119878;28;20197;-87
2022/01/08 07:27:57;;;;;;;6.00;1.70;;;;;;;;;;5119341;28;20204;-86
2022/01/08 07:30:26;;;;;;;9.93;1.37;;;;;;;;;;5120153;28;20192;-86
2022/01/08 07:32:54;;;;;;;1.63;1.53;;;;;;;;;;5119238;28;20255;-86
2022/01/08 07:35:23;;;;;;;0.87;0.87;;;;;;;;;;5119232;28;20230;-86
2022/01/08 07:37:52;;;;;;;3.17;1.53;;;;;;;;;;5119415;28;20226;-86
2022/01/08 07:40:21;;;;;;;7.43;2.23;;;;;;;;;;5119406;28;20262;-86
2022/01/08 07:42:50;;;;;;;2.87;1.90;;;;;;;;;;5118858;28;20204;-86
2022/01/08 07:45:20;;;;;;;2.80;1.60;;;;;;;;;;5119148;28;20220;-86
2022/01/08 07:47:49;;;;;;;1.30;1.30;;;;;;;;;;5119150;28;20299;-86
2022/01/08 07:50:17;;;;;;;4.27;1.33;;;;;;;;;;5119202;28;20204;-86
2022/01/08 07:52:46;;;;;;;1.30;1.30;;;;;;;;;;5119285;28;20204;-86
2022/01/08 07:55:14;;;;;;;3.60;1.57;;;;;;;;;;5118535;28;20247;-86
2022/01/08 07:57:43;;;;;;;2.97;1.57;;;;;;;;;;5118684;28;20211;-87
2022/01/08 08:00:12;;;;;;;0.80;0.80;;;;;;;;;;5118263;28;20224;-86
2022/01/08 08:02:41;;;;;;;1.87;1.73;;;;;;;;;;5118295;28;20269;-86
2022/01/08 08:05:10;;;;;;;3.70;1.97;;;;;;;;;;5117929;28;20201;-86
2022/01/08 08:07:39;;;;;;;4.63;2.10;;;;;;;;;;5117917;28;20212;-86
2022/01/08 08:10:08;;;;;;;7.57;3.03;;;;;;;;;;5118101;28;20299;-86
2022/01/08 08:12:37;;;;;;;1.23;1.23;;;;;;;;;;5117825;28;20226;-86
2022/01/08 08:15:06;;;;;;;6.27;2.77;;;;;;;;;;5117723;28;20224;-86
2022/01/08 08:17:34;;;;;;;4.80;2.60;;;;;;;;;;5118557;28;20204;-85
2022/01/08 08:20:04;;;;;;;3.97;2.43;;;;;;;;;;5117541;28;20200;-86
2022/01/08 08:22:33;;;;;;;1.77;1.67;;;;;;;;;;5117671;28;20216;-86
2022/01/08 08:25:01;;;;;;;7.50;3.63;;;;;;;;;;5117451;28;20227;-86
2022/01/08 08:27:30;;;;;;;5.03;2.47;;;;;;;;;;5117677;28;20207;-85
2022/01/08 08:29:59;;;;;;;7.03;2.90;;;;;;;;;;5117852;28;20200;-86
2022/01/08 08:32:27;;;;;;;8.80;3.43;;;;;;;;;;5117581;28;20273;-86
2022/01/08 08:34:55;;;;;;;5.80;3.50;;;;;;;;;;5117857;28;20210;-86
2022/01/08 08:37:25;;;;;;;7.07;3.47;;;;;;;;;;5118263;28;20246;-86
2022/01/08 08:39:54;;;;;;;6.73;3.87;;;;;;;;;;5117317;28;20242;-86
2022/01/08 08:42:22;;;;;;;7.93;3.23;;;;;;;;;;5116881;28;20224;-86
2022/01/08 08:44:50;;;;;;;7.23;3.63;;;;;;;;;;5117335;28;20300;-86
2022/01/08 08:47:19;;;;;;;4.20;3.10;;;;;;;;;;5117541;28;20201;-86
2022/01/08 08:49:47;;;;;;;7.23;3.20;;;;;;;;;;5117620;28;20207;-87
2022/01/08 08:52:16;;;;;;;7.50;3.73;;;;;;;;;;5117744;28;20222;-86
2022/01/08 08:54:45;;;;;;;6.43;3.40;;;;;;;;;;5117613;28;20227;-86
2022/01/08 08:57:14;;;;;;;4.37;3.50;;;;;;;;;;5117018;28;20319;-86
2022/01/08 08:59:42;;;;;;;9.93;4.20;;;;;;;;;;5117016;28;20238;-86
2022/01/08 09:02:11;;;;;;;9.13;4.43;;;;;;;;;;5116924;28;20250;-86
2022/01/08 09:04:41;;;;;;;8.07;4.00;;;;;;;;;;5116788;28;20227;-87
2022/01/08 09:07:11;;;;;;;6.60;3.33;;;;;;;;;;5117175;28;20196;-86
2022/01/08 09:09:39;;;;;;;4.20;2.17;;;;;;;;;;5116734;28;20227;-86
2022/01/08 09:12:13;;;;;;;4.93;3.30;;;;;;;;;;5116967;28;20232;-86
2022/01/08 09:14:42;;;;;;;9.70;4.70;;;;;;;;;;5117393;28;20212;-86
2022/01/08 09:17:11;;;;;;;7.70;3.43;;;;;;;;;;5116600;28;20251;-86
2022/01/08 09:19:40;;;;;;;4.53;3.83;;;;;;;;;;5116734;28;20200;-86
2022/01/08 09:22:08;;;;;;;6.77;3.97;;;;;;;;;;5116103;28;20253;-86
2022/01/08 09:24:37;;;;;;;5.40;3.57;;;;;;;;;;5116008;28;20231;-85
2022/01/08 09:27:06;;;;;;;7.80;4.63;;;;;;;;;;5116310;28;20204;-86
2022/01/08 09:29:36;;;;;;;9.97;4.90;;;;;;;;;;5116618;28;20234;-86
2022/01/08 09:32:05;;;;;;;5.47;4.60;;;;;;;;;;5114648;28;20235;-85
2022/01/08 09:34:33;;;;;;;5.77;3.50;;;;;;;;;;5095754;28;20228;-86
2022/01/08 09:37:02;;;;;;;4.83;3.50;;;;;;;;;;5095163;28;20290;-85
2022/01/08 09:39:30;;;;;;;8.23;4.27;;;;;;;;;;5095368;28;20250;-85
2022/01/08 09:41:59;;;;;;;8.03;3.73;;;;;;;;;;5095500;28;20197;-85
2022/01/08 09:44:27;;;;;;;8.63;3.50;;;;;;;;;;5095486;28;20292;-85
2022/01/08 09:46:57;;;;;;;6.90;3.90;;;;;;;;;;5095211;28;20233;-86
2022/01/08 09:49:25;;;;;;;8.60;4.27;;;;;;;;;;5095451;28;20204;-85
2022/01/08 09:51:54;;;;;;;8.43;5.07;;;;;;;;;;5095566;28;20230;-85
2022/01/08 09:54:22;;;;;;;8.83;4.50;;;;;;;;;;5097720;28;20232;-85
2022/01/08 09:56:51;;;;;;;7.93;4.57;;;;;;;;;;5099093;28;20220;-85
2022/01/08 09:59:19;;;;;;;6.03;4.50;;;;;;;;;;5099210;28;20211;-85
2022/01/08 10:01:54;;;;;;;8.00;4.73;;;;;;;;;;5099514;28;20197;-85
2022/01/08 10:04:26;;;;;;;11.73;5.53;;;;;;;;;;5098857;28;20259;-85
2022/01/08 10:07:14;;;;;;;13.30;5.73;;;;;;;;;;5099155;28;20243;-85
2022/01/08 10:09:57;;;;;;;10.60;5.37;;;;;;;;;;5099020;28;20238;-85
2022/01/08 10:12:36;;;;;;;11.23;5.97;;;;;;;;;;5098574;28;20283;-85
2022/01/08 10:17:51;;;;;;;14.30;6.17;;;;;;;;;;5098395;28;20248;-86
2022/01/08 10:20:32;;;;;;;8.90;7.97;;;;;;;;;;5098826;28;20227;-86
2022/01/08 10:23:14;;;;;;;14.53;10.07;;;;;;;;;;5098231;28;20216;-86
2022/01/08 10:25:43;;;;;;;13.07;9.70;;;;;;;;;;5098645;28;20231;-86
2022/01/08 10:28:12;;;;;;;13.33;10.27;;;;;;;;;;5098657;28;20216;-86
2022/01/08 10:30:40;;;;;;;13.67;9.47;;;;;;;;;;5098320;28;20223;-86
2022/01/08 10:33:08;;;;;;;13.60;9.30;;;;;;;;;;5108690;28;20315;-86
2022/01/08 10:35:48;;;;;;;11.77;10.60;;;;;;;;;;5118471;28;20296;-86
2022/01/08 10:38:17;;;;;;;13.00;8.13;;;;;;;;;;5118395;28;20248;-86
2022/01/08 10:40:45;;;;;;;12.67;8.37;;;;;;;;;;5118396;28;20260;-86
2022/01/08 10:43:24;;;;;;;13.73;11.40;;;;;;;;;;5118394;28;20262;-86
2022/01/08 10:45:52;;;;;;;11.73;9.17;;;;;;;;;;5118131;28;20252;-86
2022/01/08 10:48:31;;;;;;;13.63;10.53;;;;;;;;;;5118306;28;20196;-86
2022/01/08 10:51:11;;;;;;;13.13;9.90;;;;;;;;;;5118552;28;20235;-87
2022/01/08 10:53:54;;;;;;;12.27;10.07;;;;;;;;;;5118129;28;20184;-86
2022/01/08 10:56:23;;;;;;;9.27;5.50;;;;;;;;;;5118008;28;20321;-86
2022/01/08 10:58:53;;;;;;;11.87;10.73;;;;;;;;;;5118035;28;20208;-86
2022/01/08 11:01:37;;;;;;;12.60;11.40;;;;;;;;;;5118432;28;20250;-86
2022/01/08 11:04:07;;;;;;;14.63;12.23;;;;;;;;;;5117105;28;20218;-86
2022/01/08 11:06:49;;;;;;;12.20;10.70;;;;;;;;;;5118080;28;20205;-86
2022/01/08 11:09:18;;;;;;;13.40;12.10;;;;;;;;;;5118366;28;20231;-86
2022/01/08 11:11:50;;;;;;;18.93;13.50;;;;;;;;;;5118393;28;20188;-86
2022/01/08 11:14:47;;;;;;;13.63;12.33;;;;;;;;;;5118155;28;20197;-86
2022/01/08 11:17:14;;;;;;;10.90;9.77;;;;;;;;;;5117687;28;20250;-86
2022/01/08 11:19:44;;;;;;;16.93;13.30;;;;;;;;;;5117990;28;20204;-86
2022/01/08 11:22:15;;;;;;;13.17;11.83;;;;;;;;;;5117873;28;20243;-86
2022/01/08 11:24:48;;;;;;;21.33;11.40;;;;;;;;;;5117575;28;20227;-86
2022/01/08 11:27:20;;;;;;;11.50;10.43;;;;;;;;;;5117628;28;20230;-86
2022/01/08 11:29:51;;;;;;;15.67;13.33;;;;;;;;;;5117629;28;20219;-86
2022/01/08 11:32:20;;;;;;;13.13;11.87;;;;;;;;;;5115551;28;20238;-86
2022/01/08 11:34:49;;;;;;;13.17;11.70;;;;;;;;;;5096746;28;20228;-86
2022/01/08 11:37:19;;;;;;;11.30;9.23;;;;;;;;;;5096557;28;20244;-86
2022/01/08 11:39:48;;;;;;;12.63;11.33;;;;;;;;;;5097158;28;20205;-86
2022/01/08 11:42:16;;;;;;;9.87;8.87;;;;;;;;;;5096604;28;20204;-86
2022/01/08 11:44:45;;;;;;;13.07;11.73;;;;;;;;;;5096815;28;20223;-86
2022/01/08 11:47:13;;;;;;;13.13;11.70;;;;;;;;;;5096455;28;20193;-86
2022/01/08 11:49:42;;;;;;;12.47;9.77;;;;;;;;;;5096950;28;20242;-86
2022/01/08 11:52:14;;;;;;;14.83;10.47;;;;;;;;;;5096978;28;20197;-86
2022/01/08 11:54:45;;;;;;;12.63;11.43;;;;;;;;;;5096918;28;20205;-86
2022/01/08 11:57:17;;;;;;;13.00;10.20;;;;;;;;;;5096311;28;20310;-86
2022/01/08 11:59:46;;;;;;;13.80;11.23;;;;;;;;;;5096114;28;20244;-86
2022/01/08 12:02:20;;;;;;;14.17;11.07;;;;;;;;;;5096428;28;20186;-86
2022/01/08 12:04:53;;;;;;;15.23;10.67;;;;;;;;;;5096483;28;20208;-86
2022/01/08 12:07:25;;;;;;;13.27;9.83;;;;;;;;;;5095964;28;20259;-86
2022/01/08 12:10:04;;;;;;;17.67;12.90;;;;;;;;;;5096207;28;20260;-85
2022/01/08 12:12:43;;;;;;;11.77;8.07;;;;;;;;;;5095960;28;20231;-86
2022/01/08 12:15:11;;;;;;;14.90;9.47;;;;;;;;;;5096260;28;20189;-85
2022/01/08 12:17:56;;;;;;;11.60;10.13;;;;;;;;;;5094986;28;20311;-85
2022/01/08 12:20:41;;;;;;;11.23;8.37;;;;;;;;;;5096186;28;20200;-86
2022/01/08 12:23:24;;;;;;;14.03;8.43;;;;;;;;;;5095503;28;20201;-86
2022/01/08 12:25:55;;;;;;;11.20;10.10;;;;;;;;;;5095564;28;20201;-86
2022/01/08 12:28:42;;;;;;;11.53;8.93;;;;;;;;;;5095403;28;20228;-86
2022/01/08 12:31:36;;;;;;;9.83;8.60;;;;;;;;;;5095810;28;20197;-85
2022/01/08 12:34:37;;;;;;;11.03;9.97;;;;;;;;;;5092269;28;20290;-86
2022/01/08 12:37:07;;;;;;;15.47;13.83;;;;;;;;;;5095444;28;20201;-86
2022/01/08 12:40:02;;;;;;;16.20;14.73;;;;;;;;;;5094803;28;20228;-85
2022/01/08 12:42:42;;;;;;;14.97;13.53;;;;;;;;;;5048752;28;20225;-86
2022/01/08 12:45:12;;;;;;;17.23;15.53;;;;;;;;;;5096057;28;20227;-86
2022/01/08 12:47:48;;;;;;;19.83;14.03;;;;;;;;;;5096396;28;20205;-86
2022/01/08 12:50:18;;;;;;;14.53;12.50;;;;;;;;;;5096170;28;20220;-86
2022/01/08 12:53:05;;;;;;;17.47;15.90;;;;;;;;;;5096110;28;20209;-86
2022/01/08 12:55:33;;;;;;;17.67;14.20;;;;;;;;;;5095622;28;20250;-86
2022/01/08 12:58:12;;;;;;;9.13;8.23;;;;;;;;;;5095904;28;20240;-86
2022/01/08 13:00:53;;;;;;;14.30;12.83;;;;;;;;;;5095575;28;20253;-86
2022/01/08 13:03:23;;;;;;;12.67;11.50;;;;;;;;;;5095900;28;20225;-86
2022/01/08 13:05:52;;;;;;;11.57;10.47;;;;;;;;;;5095547;28;20284;-87
2022/01/08 13:08:24;;;;;;;14.53;13.07;;;;;;;;;;5095580;28;20220;-86
2022/01/08 13:10:57;;;;;;;15.07;13.53;;;;;;;;;;5095400;28;20197;-87
2022/01/08 13:13:27;;;;;;;14.90;13.47;;;;;;;;;;5095322;28;20250;-86
2022/01/08 13:15:56;;;;;;;13.47;12.00;;;;;;;;;;5095537;28;20203;-86
2022/01/08 13:18:26;;;;;;;13.33;12.17;;;;;;;;;;5095324;28;20245;-87
2022/01/08 13:21:02;;;;;;;13.63;12.43;;;;;;;;;;5096001;28;20242;-86
2022/01/08 13:23:30;;;;;;;13.27;12.07;;;;;;;;;;5096718;28;20208;-86
2022/01/08 13:26:00;;;;;;;12.67;11.37;;;;;;;;;;5096148;28;20235;-87
2022/01/08 13:28:29;;;;;;;9.90;8.63;;;;;;;;;;5097090;28;20228;-86
2022/01/08 13:30:58;;;;;;;11.70;10.57;;;;;;;;;;5096419;28;20208;-86
2022/01/08 13:33:28;;;;;;;10.47;8.80;;;;;;;;;;5108176;28;20263;-87
2022/01/08 13:36:00;;;;;;;11.20;10.03;;;;;;;;;;5117925;28;20187;-86
2022/01/08 13:38:29;;;;;;;9.70;8.90;;;;;;;;;;5117976;28;20227;-86
2022/01/08 13:40:58;;;;;;;12.23;10.63;;;;;;;;;;5117523;28;20238;-86
2022/01/08 13:43:26;;;;;;;12.47;11.30;;;;;;;;;;5117493;28;20204;-87
2022/01/08 13:45:56;;;;;;;10.93;9.73;;;;;;;;;;5116967;28;20231;-86
2022/01/08 13:48:24;;;;;;;9.93;8.27;;;;;;;;;;5117287;28;20228;-86
2022/01/08 13:50:58;;;;;;;9.43;7.97;;;;;;;;;;5116910;28;20224;-86
2022/01/08 13:53:26;;;;;;;10.10;9.10;;;;;;;;;;5116748;28;20223;-85
2022/01/08 13:55:54;;;;;;;12.63;11.37;;;;;;;;;;5116413;28;20245;-87
2022/01/08 13:58:27;;;;;;;11.53;10.43;;;;;;;;;;5115915;28;20248;-85
2022/01/08 14:01:01;;;;;;;10.73;9.73;;;;;;;;;;5116132;28;20224;-85
2022/01/08 14:03:31;;;;;;;12.47;11.30;;;;;;;;;;5116046;28;20325;-85
2022/01/08 14:06:00;;;;;;;11.57;10.37;;;;;;;;;;5115876;28;20200;-86
2022/01/08 14:08:30;;;;;;;9.60;8.63;;;;;;;;;;5115756;28;20287;-86
2022/01/08 14:11:00;;;;;;;12.80;11.10;;;;;;;;;;5115825;28;20220;-86
2022/01/08 14:13:29;;;;;;;7.23;6.53;;;;;;;;;;5116205;28;20200;-86
2022/01/08 14:16:03;;;;;;;7.13;6.50;;;;;;;;;;5116205;28;20231;-86
2022/01/08 14:18:32;;;;;;;7.73;7.07;;;;;;;;;;5115591;28;20248;-86
2022/01/08 14:21:12;;;;;;;9.57;8.63;;;;;;;;;;5115295;28;20225;-86
2022/01/08 14:23:41;;;;;;;11.13;10.03;;;;;;;;;;5115621;28;20205;-86
2022/01/08 14:26:13;;;;;;;12.37;11.13;;;;;;;;;;5115374;28;20254;-85
2022/01/08 14:28:42;;;;;;;9.07;7.67;;;;;;;;;;5115790;28;20220;-86
2022/01/08 14:31:14;;;;;;;11.30;10.13;;;;;;;;;;5115483;28;20292;-85
2022/01/08 14:34:06;;;;;;;10.93;9.93;;;;;;;;;;5101983;28;20237;-86
2022/01/08 14:36:42;;;;;;;10.33;9.37;;;;;;;;;;5094892;28;20220;-85
2022/01/08 14:39:11;;;;;;;11.83;10.87;;;;;;;;;;5094405;28;20223;-85
2022/01/08 14:41:40;;;;;;;11.73;10.03;;;;;;;;;;5098302;28;20197;-86
2022/01/08 14:44:08;;;;;;;11.10;10.17;;;;;;;;;;5098697;28;20246;-85
2022/01/08 14:46:46;;;;;;;11.07;10.07;;;;;;;;;;5098173;28;20201;-85
2022/01/08 14:49:15;;;;;;;14.17;13.03;;;;;;;;;;5097893;28;20311;-85
2022/01/08 14:51:43;;;;;;;11.83;10.80;;;;;;;;;;5098100;28;20236;-85
2022/01/08 14:54:11;;;;;;;12.10;11.20;;;;;;;;;;5098096;28;20229;-85
2022/01/08 14:56:41;;;;;;;17.10;15.70;;;;;;;;;;5097952;28;20205;-85
2022/01/08 14:59:09;;;;;;;14.63;13.50;;;;;;;;;;5097621;28;20307;-85
2022/01/08 15:01:40;;;;;;;13.10;11.70;;;;;;;;;;5097642;28;20208;-85
2022/01/08 15:04:09;;;;;;;18.90;17.60;;;;;;;;;;5097573;28;20278;-85
2022/01/08 15:06:37;;;;;;;17.33;16.03;;;;;;;;;;5097720;28;20239;-85
2022/01/08 15:09:06;;;;;;;14.70;13.30;;;;;;;;;;5097665;28;20225;-84
2022/01/08 15:11:34;;;;;;;17.67;16.27;;;;;;;;;;5097070;28;20228;-85